Bennington, Nebraska
Current Conditions -  °F | °C
As of 8:15 AM on Tuesday 21 Oct 2014 (Local Time) from KBTA Reporting Station
Clear Clear  
Wind Chill: 44°   Ceiling: Unl
Heat Index: 46°   Visibility: 10mi
Dew Point: 39°   Wind: 5mph
Humidity: 77%   Direction: 80°E
Pressure: 30.11"   Gusts: NA
Location:  41.36°N, 96.16°W
Report Text: KBTA 211315Z AUTO 08004KT 10SM CLR 08/04 A3011 RMK AO2 T00790041
Loading
Personal Weather Stations






























Interactive Weather Map
Tropical Storm Tracking
New forecast layout! Learn more

10-Day Weather Forecast

Advertisements
Track Severe Weather on mobile